Time;durP1;ratioP1;P1;durP2;ratioP2;P2;SDS_P1;SDS_P2;PMS_P1;PMS_P2;Temp;Humidity;BMP_temperature;BMP_pressure;BME280_temperature;BME280_humidity;BME280_pressure;Samples;Min_cycle;Max_cycle;Signal;HPM_P1;HPM_P2
2021/07/13 00:00:01;;;;;;;;;;;15.20;99.90;15.50;99363.00;;;;344626;28;90963;-87
2021/07/13 00:00:43;;;;;;;;;;;15.20;99.90;15.40;99347.00;;;;346206;28;82691;-87
2021/07/13 00:00:55;;;;;;;;;;;15.20;99.90;15.30;99351.00;;;;341804;28;92665;-87
2021/07/13 00:01:07;;;;;;;;;;;15.20;99.90;15.30;99345.00;;;;342031;28;82411;-86
2021/07/13 00:01:19;;;;;;;;;;;15.20;99.90;15.20;99357.00;;;;341695;28;88272;-88
2021/07/13 00:01:30;;;;;;;;;;;15.20;99.90;15.30;99351.00;;;;346433;28;82357;-87
2021/07/13 00:01:42;;;;;;;;;;;15.20;99.90;15.50;99355.00;;;;345906;28;90320;-87
2021/07/13 00:01:54;;;;;;;;;;;15.20;99.90;15.40;99355.00;;;;349197;28;82524;-87
2021/07/13 00:02:06;;;;;;;;;;;15.20;99.90;15.40;99345.00;;;;348999;28;87710;-87
2021/07/13 00:02:18;;;;;;;;;;;15.20;99.90;15.20;99350.00;;;;349097;28;82381;-87
2021/07/13 00:02:29;;;;;;;;;;;15.20;99.90;15.30;99345.00;;;;345921;28;90018;-87
2021/07/13 00:02:41;;;;;;;;;;;15.20;99.90;15.30;99348.00;;;;347860;28;82287;-86
2021/07/13 00:02:53;;;;;;;;;;;15.20;99.90;15.30;99355.00;;;;346126;28;87701;-87
2021/07/13 00:03:05;;;;;;;;;;;15.20;99.90;15.30;99352.00;;;;346590;28;82546;-87
2021/07/13 00:03:17;;;;;;;;;;;15.20;99.90;15.30;99350.00;;;;350032;27;91511;-87
2021/07/13 00:03:29;;;;;;;;;;;15.20;99.90;15.30;99344.00;;;;347932;28;82214;-88
2021/07/13 00:03:40;;;;;;;;;;;15.20;99.90;15.30;99348.00;;;;348776;28;88654;-88
2021/07/13 00:03:53;;;;;;;;;;;15.20;99.90;15.40;99349.00;;;;349236;27;82586;-85
2021/07/13 00:04:07;;;;;;;;;;;15.20;99.90;15.40;99340.00;;;;346205;28;88196;-85
2021/07/13 00:04:30;;;;;;;;;;;15.20;99.90;15.20;99347.00;;;;347686;28;82519;-84
2021/07/13 00:04:43;;;;;;;;;;;15.20;99.90;15.20;99346.00;;;;347424;28;87719;-85
2021/07/13 00:04:54;;;;;;;;;;;15.20;99.90;15.30;99344.00;;;;347757;28;82313;-85
2021/07/13 00:05:14;;;;;;;;;;;15.20;99.90;15.50;99342.00;;;;344777;28;88109;-84
2021/07/13 00:05:26;;;;;;;;;;;15.20;99.90;15.30;99343.00;;;;349316;28;82240;-85
2021/07/13 00:05:38;;;;;;;;;;;15.20;99.90;15.20;99345.00;;;;348725;27;90535;-86
2021/07/13 00:05:49;;;;;;;;;;;15.20;99.90;15.10;99343.00;;;;345002;28;83408;-86
2021/07/13 00:06:03;;;;;;;;;;;15.20;99.90;15.10;99341.00;;;;346047;28;92019;-87
2021/07/13 00:06:15;;;;;;;;;;;15.20;99.90;15.00;99341.00;;;;348480;28;82573;-87
2021/07/13 00:06:26;;;;;;;;;;;15.20;99.90;15.00;99345.00;;;;345902;28;91145;-88
2021/07/13 00:06:38;;;;;;;;;;;15.20;99.90;15.00;99334.00;;;;345461;28;82481;-87
2021/07/13 00:06:50;;;;;;;;;;;15.20;99.90;15.00;99333.00;;;;344488;28;89032;-87
2021/07/13 00:07:02;;;;;;;;;;;15.10;99.90;15.00;99335.00;;;;344729;28;83478;-87
2021/07/13 00:07:14;;;;;;;;;;;15.10;99.90;15.10;99339.00;;;;347014;28;89049;-87
2021/07/13 00:07:26;;;;;;;;;;;15.20;99.90;15.00;99333.00;;;;344504;28;83769;-86
2021/07/13 00:07:38;;;;;;;;;;;15.10;99.90;15.10;99334.00;;;;347014;27;91363;-87
2021/07/13 00:07:50;;;;;;;;;;;15.10;99.90;15.10;99336.00;;;;344712;28;82394;-86
2021/07/13 00:08:01;;;;;;;;;;;15.10;99.90;15.10;99338.00;;;;345693;28;89047;-87
2021/07/13 00:08:13;;;;;;;;;;;15.10;99.90;15.10;99336.00;;;;347383;28;83351;-87
2021/07/13 00:08:25;;;;;;;;;;;15.10;99.90;15.20;99339.00;;;;345638;28;91981;-87
2021/07/13 00:08:38;;;;;;;;;;;15.10;99.90;15.20;99341.00;;;;346218;28;83312;-87
2021/07/13 00:08:53;;;;;;;;;;;15.10;99.90;15.20;99343.00;;;;344313;28;88918;-87
2021/07/13 00:09:05;;;;;;;;;;;15.10;99.90;15.20;99330.00;;;;344751;28;83382;-86
2021/07/13 00:09:19;;;;;;;;;;;15.10;99.90;15.20;99338.00;;;;345156;28;88981;-86
2021/07/13 00:09:30;;;;;;;;;;;15.10;99.90;15.20;99335.00;;;;346123;28;83406;-87
2021/07/13 00:09:45;;;;;;;;;;;15.10;99.90;15.10;99332.00;;;;343963;28;92297;-87
2021/07/13 00:09:56;;;;;;;;;;;15.10;99.90;15.10;99336.00;;;;344701;28;83215;-87
2021/07/13 00:10:09;;;;;;;;;;;15.10;99.90;15.00;99329.00;;;;344989;28;93295;-87
2021/07/13 00:10:23;;;;;;;;;;;15.00;99.90;15.00;99338.00;;;;344468;28;84951;-87
2021/07/13 00:10:39;;;;;;;;;;;15.10;99.90;14.90;99335.00;;;;344230;28;92670;-87
2021/07/13 00:10:50;;;;;;;;;;;15.10;99.90;14.90;99329.00;;;;347385;28;83454;-86
2021/07/13 00:11:02;;;;;;;;;;;15.00;99.90;14.90;99331.00;;;;347066;27;88777;-87
2021/07/13 00:11:14;;;;;;;;;;;15.00;99.90;14.90;99335.00;;;;347440;28;83471;-87
2021/07/13 00:11:26;;;;;;;;;;;15.00;99.90;14.90;99333.00;;;;347114;28;89123;-87
2021/07/13 00:11:38;;;;;;;;;;;15.00;99.90;15.10;99333.00;;;;347383;28;83764;-86
2021/07/13 00:11:49;;;;;;;;;;;15.00;99.90;15.20;99332.00;;;;344298;28;89399;-87
2021/07/13 00:12:02;;;;;;;;;;;15.00;99.90;15.20;99340.00;;;;345885;28;83432;-86
2021/07/13 00:12:14;;;;;;;;;;;15.00;99.90;15.30;99334.00;;;;348109;27;89708;-87
2021/07/13 00:12:26;;;;;;;;;;;15.00;99.90;15.20;99337.00;;;;347408;28;83449;-87
2021/07/13 00:12:38;;;;;;;;;;;15.00;99.90;15.20;99334.00;;;;348305;27;91993;-87
2021/07/13 00:12:50;;;;;;;;;;;15.00;99.90;15.30;99333.00;;;;347316;28;82434;-87
2021/07/13 00:13:02;;;;;;;;;;;15.00;99.90;15.30;99330.00;;;;343933;28;92761;-86
2021/07/13 00:13:14;;;;;;;;;;;15.00;99.90;15.30;99339.00;;;;348667;27;82359;-87
2021/07/13 00:13:25;;;;;;;;;;;15.10;99.90;15.30;99330.00;;;;347047;28;91254;-87
2021/07/13 00:13:37;;;;;;;;;;;15.10;99.90;15.30;99333.00;;;;347365;27;83420;-87
2021/07/13 00:13:49;;;;;;;;;;;15.00;99.90;15.20;99333.00;;;;348431;27;90513;-87
2021/07/13 00:14:01;;;;;;;;;;;15.00;99.90;15.30;99333.00;;;;346117;28;83362;-87
2021/07/13 00:14:13;;;;;;;;;;;15.10;99.90;15.20;99328.00;;;;344227;28;90332;-87
2021/07/13 00:14:25;;;;;;;;;;;15.10;99.90;15.30;99326.00;;;;344788;28;83274;-87
2021/07/13 00:14:37;;;;;;;;;;;15.00;99.90;15.20;99329.00;;;;347156;28;88707;-87
2021/07/13 00:14:49;;;;;;;;;;;15.00;99.90;15.20;99330.00;;;;347431;28;83151;-87
2021/07/13 00:15:02;;;;;;;;;;;15.10;99.90;15.20;99328.00;;;;346924;28;92390;-87
2021/07/13 00:15:27;;;;;;;;;;;15.00;99.90;15.20;99332.00;;;;348251;27;86167;-87
2021/07/13 00:15:40;;;;;;;;;;;15.10;99.90;15.10;99327.00;;;;347770;27;91204;-87
2021/07/13 00:15:52;;;;;;;;;;;15.10;99.90;15.10;99332.00;;;;346038;28;83447;-86
2021/07/13 00:16:06;;;;;;;;;;;15.10;99.90;15.10;99333.00;;;;345617;28;92122;-87
2021/07/13 00:16:18;;;;;;;;;;;15.10;99.90;15.10;99333.00;;;;345930;28;83544;-86
2021/07/13 00:16:30;;;;;;;;;;;15.10;99.90;15.20;99332.00;;;;344239;28;91628;-87
2021/07/13 00:16:42;;;;;;;;;;;15.10;99.90;15.40;99331.00;;;;346077;28;83425;-87
2021/07/13 00:16:54;;;;;;;;;;;15.10;99.90;15.40;99334.00;;;;345651;28;88543;-86
2021/07/13 00:17:06;;;;;;;;;;;15.10;99.90;15.50;99336.00;;;;346078;28;82599;-87
2021/07/13 00:17:18;;;;;;;;;;;15.10;99.90;15.40;99333.00;;;;345671;28;90085;-87
2021/07/13 00:17:30;;;;;;;;;;;15.10;99.90;15.40;99334.00;;;;346041;28;83382;-87
2021/07/13 00:17:43;;;;;;;;;;;15.10;99.90;15.30;99335.00;;;;345707;28;89133;-87
2021/07/13 00:17:56;;;;;;;;;;;15.10;99.90;15.30;99334.00;;;;346130;28;84357;-87
2021/07/13 00:18:08;;;;;;;;;;;15.10;99.90;15.30;99326.00;;;;345925;28;92065;-87
2021/07/13 00:18:20;;;;;;;;;;;15.10;99.90;15.30;99326.00;;;;344925;28;83393;-87
2021/07/13 00:18:32;;;;;;;;;;;15.10;99.90;15.30;99338.00;;;;345427;28;93224;-87
2021/07/13 00:18:44;;;;;;;;;;;15.10;99.90;15.30;99341.00;;;;343301;28;83469;-87
2021/07/13 00:18:55;;;;;;;;;;;15.10;99.90;15.30;99339.00;;;;345677;28;88406;-87
2021/07/13 00:19:07;;;;;;;;;;;15.10;99.90;15.40;99344.00;;;;345932;28;83149;-86
2021/07/13 00:19:19;;;;;;;;;;;15.20;99.90;15.50;99338.00;;;;345508;28;91959;-87
2021/07/13 00:19:31;;;;;;;;;;;15.10;99.90;15.50;99342.00;;;;344754;28;82350;-87
2021/07/13 00:19:42;;;;;;;;;;;15.20;99.90;15.40;99341.00;;;;345639;28;90454;-87
2021/07/13 00:19:54;;;;;;;;;;;15.20;99.90;15.30;99338.00;;;;345943;28;83439;-86
2021/07/13 00:20:06;;;;;;;;;;;15.10;99.90;15.30;99342.00;;;;345689;28;89593;-87
2021/07/13 00:20:18;;;;;;;;;;;15.20;99.90;15.40;99345.00;;;;346128;28;82392;-87
2021/07/13 00:20:30;;;;;;;;;;;15.20;99.90;15.50;99346.00;;;;344201;28;93038;-87
2021/07/13 00:20:42;;;;;;;;;;;15.20;99.90;15.50;99344.00;;;;346067;28;83243;-87
2021/07/13 00:20:55;;;;;;;;;;;15.20;99.90;15.50;99353.00;;;;346543;28;92563;-87
2021/07/13 00:21:07;;;;;;;;;;;15.20;99.90;15.40;99353.00;;;;347056;28;83639;-87
2021/07/13 00:21:19;;;;;;;;;;;15.20;99.90;15.40;99360.00;;;;343489;28;88978;-87
2021/07/13 00:21:31;;;;;;;;;;;15.20;99.90;15.40;99357.00;;;;346097;28;83435;-86
2021/07/13 00:21:43;;;;;;;;;;;15.20;99.90;15.30;99354.00;;;;344253;28;90515;-87
2021/07/13 00:21:55;;;;;;;;;;;15.20;99.90;15.30;99351.00;;;;347389;28;83333;-87
2021/07/13 00:22:07;;;;;;;;;;;15.20;99.90;15.30;99354.00;;;;348649;27;88889;-87
2021/07/13 00:22:18;;;;;;;;;;;15.20;99.90;15.40;99359.00;;;;348910;27;82210;-87
2021/07/13 00:22:30;;;;;;;;;;;15.20;99.90;15.40;99363.00;;;;346873;28;91548;-87
2021/07/13 00:22:42;;;;;;;;;;;15.20;99.90;15.50;99351.00;;;;347572;28;83306;-86
2021/07/13 00:22:54;;;;;;;;;;;15.20;99.90;15.50;99362.00;;;;345612;28;91108;-87
2021/07/13 00:23:06;;;;;;;;;;;15.20;99.90;15.50;99361.00;;;;344604;28;83293;-87
2021/07/13 00:23:18;;;;;;;;;;;15.20;99.90;15.40;99362.00;;;;348413;27;90779;-86
2021/07/13 00:23:30;;;;;;;;;;;15.20;99.90;15.40;99360.00;;;;348677;27;83512;-87
2021/07/13 00:23:42;;;;;;;;;;;15.20;99.90;15.40;99365.00;;;;346954;27;89737;-86
2021/07/13 00:23:54;;;;;;;;;;;15.20;99.90;15.40;99364.00;;;;343463;28;83253;-87
2021/07/13 00:24:07;;;;;;;;;;;15.20;99.90;15.60;99368.00;;;;345256;28;91608;-87
2021/07/13 00:24:19;;;;;;;;;;;15.20;99.90;15.50;99362.00;;;;346129;28;83591;-87
2021/07/13 00:24:30;;;;;;;;;;;15.20;99.90;15.40;99366.00;;;;345264;28;90344;-87
2021/07/13 00:24:42;;;;;;;;;;;15.20;99.90;15.40;99369.00;;;;344717;28;83364;-87
2021/07/13 00:24:54;;;;;;;;;;;15.20;99.90;15.50;99376.00;;;;342692;28;89335;-86
2021/07/13 00:25:07;;;;;;;;;;;15.20;99.90;15.50;99373.00;;;;344659;28;83401;-86
2021/07/13 00:25:18;;;;;;;;;;;15.30;99.90;15.50;99367.00;;;;344350;28;89256;-86
2021/07/13 00:25:30;;;;;;;;;;;15.20;99.90;15.50;99367.00;;;;346007;28;83403;-87
2021/07/13 00:25:42;;;;;;;;;;;15.20;99.90;15.50;99366.00;;;;344355;28;89192;-87
2021/07/13 00:25:54;;;;;;;;;;;15.20;99.90;15.40;99360.00;;;;344711;28;83445;-87
2021/07/13 00:26:06;;;;;;;;;;;15.20;99.90;15.40;99366.00;;;;345663;28;88922;-87
2021/07/13 00:26:17;;;;;;;;;;;15.20;99.90;15.40;99374.00;;;;345934;28;83271;-87
2021/07/13 00:26:29;;;;;;;;;;;15.20;99.90;15.40;99371.00;;;;346918;28;92894;-86
2021/07/13 00:26:41;;;;;;;;;;;15.20;99.90;15.40;99370.00;;;;346028;28;83290;-87
2021/07/13 00:26:53;;;;;;;;;;;15.20;99.90;15.40;99371.00;;;;345646;28;88958;-86
2021/07/13 00:27:04;;;;;;;;;;;15.20;99.90;15.40;99370.00;;;;344531;28;83310;-86
2021/07/13 00:27:16;;;;;;;;;;;15.20;99.90;15.40;99376.00;;;;343367;28;89085;-87
2021/07/13 00:27:28;;;;;;;;;;;15.20;99.90;15.30;99378.00;;;;344661;28;83378;-86
2021/07/13 00:27:40;;;;;;;;;;;15.20;99.90;15.30;99374.00;;;;344269;28;89014;-87
2021/07/13 00:27:52;;;;;;;;;;;15.20;99.90;15.30;99377.00;;;;344635;28;83398;-86
2021/07/13 00:28:04;;;;;;;;;;;15.20;99.90;15.40;99378.00;;;;345419;28;93190;-87
2021/07/13 00:28:15;;;;;;;;;;;15.20;99.90;15.40;99382.00;;;;345716;28;83395;-87
2021/07/13 00:28:27;;;;;;;;;;;15.20;99.90;15.30;99375.00;;;;342920;28;90102;-86
2021/07/13 00:28:39;;;;;;;;;;;15.20;99.90;15.20;99380.00;;;;346024;28;83283;-87
2021/07/13 00:28:50;;;;;;;;;;;15.20;99.90;15.20;99384.00;;;;347012;28;89729;-87
2021/07/13 00:29:03;;;;;;;;;;;15.20;99.90;15.20;99383.00;;;;344537;28;83824;-87
2021/07/13 00:29:15;;;;;;;;;;;15.20;99.90;15.20;99383.00;;;;345585;28;89201;-87
2021/07/13 00:29:26;;;;;;;;;;;15.20;99.90;15.20;99384.00;;;;346021;28;83388;-87
2021/07/13 00:29:38;;;;;;;;;;;15.20;99.90;15.40;99388.00;;;;346951;28;90523;-87
2021/07/13 00:29:50;;;;;;;;;;;15.20;99.90;15.30;99385.00;;;;346094;28;83305;-87
2021/07/13 00:30:04;;;;;;;;;;;15.20;99.90;15.30;99390.00;;;;344129;28;89345;-87
2021/07/13 00:30:17;;;;;;;;;;;15.20;99.90;15.30;99390.00;;;;346871;28;83340;-87
2021/07/13 00:30:29;;;;;;;;;;;15.20;99.90;15.40;99389.00;;;;345674;28;90485;-87
2021/07/13 00:30:40;;;;;;;;;;;15.20;99.90;15.20;99393.00;;;;343998;28;83556;-86
2021/07/13 00:30:52;;;;;;;;;;;15.20;99.90;15.20;99394.00;;;;346971;28;89125;-87
2021/07/13 00:31:04;;;;;;;;;;;15.10;99.90;15.40;99392.00;;;;346014;28;83473;-87
2021/07/13 00:31:16;;;;;;;;;;;15.10;99.90;15.30;99391.00;;;;342986;28;89428;-87
2021/07/13 00:31:28;;;;;;;;;;;15.20;99.90;15.20;99396.00;;;;346051;28;83420;-87
2021/07/13 00:31:39;;;;;;;;;;;15.20;99.90;15.10;99389.00;;;;346929;28;92247;-87
2021/07/13 00:31:51;;;;;;;;;;;15.10;99.90;15.10;99389.00;;;;347476;28;83376;-87
2021/07/13 00:32:04;;;;;;;;;;;15.10;99.90;15.10;99391.00;;;;347074;28;89101;-87
2021/07/13 00:32:16;;;;;;;;;;;15.10;99.90;15.20;99390.00;;;;346042;28;83239;-86
2021/07/13 00:32:28;;;;;;;;;;;15.10;99.90;15.30;99397.00;;;;344148;28;93352;-86
2021/07/13 00:32:39;;;;;;;;;;;15.10;99.90;15.30;99392.00;;;;347482;28;83402;-87
2021/07/13 00:32:51;;;;;;;;;;;15.10;99.90;15.40;99387.00;;;;346645;28;89262;-87
2021/07/13 00:33:03;;;;;;;;;;;15.10;99.90;15.30;99391.00;;;;344389;28;82291;-87
2021/07/13 00:33:15;;;;;;;;;;;15.10;99.90;15.30;99387.00;;;;342759;28;89362;-87
2021/07/13 00:33:26;;;;;;;;;;;15.10;99.90;15.10;99389.00;;;;346031;28;83378;-87
2021/07/13 00:33:38;;;;;;;;;;;15.10;99.90;15.10;99387.00;;;;345430;28;92298;-87
2021/07/13 00:33:50;;;;;;;;;;;15.10;99.90;15.00;99380.00;;;;347270;28;83353;-87
2021/07/13 00:34:02;;;;;;;;;;;15.10;99.90;15.00;99391.00;;;;345534;28;90949;-86
2021/07/13 00:34:13;;;;;;;;;;;15.00;99.90;15.10;99387.00;;;;344464;28;83461;-86
2021/07/13 00:34:25;;;;;;;;;;;15.10;99.90;15.20;99390.00;;;;342898;28;89699;-87
2021/07/13 00:34:37;;;;;;;;;;;15.10;99.90;15.30;99392.00;;;;346123;28;83449;-86
2021/07/13 00:34:48;;;;;;;;;;;15.10;99.90;15.20;99387.00;;;;344274;28;89481;-86
2021/07/13 00:35:00;;;;;;;;;;;15.10;99.90;15.20;99388.00;;;;346026;28;83346;-87
2021/07/13 00:35:12;;;;;;;;;;;15.10;99.90;15.10;99382.00;;;;345531;28;90847;-87
2021/07/13 00:35:24;;;;;;;;;;;15.10;99.90;15.10;99385.00;;;;346026;28;83413;-87
2021/07/13 00:35:36;;;;;;;;;;;15.10;99.90;15.00;99381.00;;;;346877;28;88841;-87
2021/07/13 00:35:47;;;;;;;;;;;15.10;99.90;15.10;99384.00;;;;345929;28;83457;-87
2021/07/13 00:35:59;;;;;;;;;;;15.10;99.90;15.10;99375.00;;;;345633;28;92301;-86
2021/07/13 00:36:11;;;;;;;;;;;15.00;99.90;15.20;99384.00;;;;344212;28;83560;-87
2021/07/13 00:36:22;;;;;;;;;;;15.10;99.90;15.20;99377.00;;;;346890;28;89914;-86
2021/07/13 00:36:34;;;;;;;;;;;15.00;99.90;15.20;99377.00;;;;347122;28;83273;-86
2021/07/13 00:36:46;;;;;;;;;;;15.00;99.90;15.10;99386.00;;;;345647;28;89133;-87
2021/07/13 00:36:57;;;;;;;;;;;15.00;99.90;15.10;99374.00;;;;344615;28;83387;-87
2021/07/13 00:37:09;;;;;;;;;;;15.00;99.90;15.20;99380.00;;;;346858;28;91153;-87
2021/07/13 00:37:21;;;;;;;;;;;15.00;99.90;15.20;99376.00;;;;347485;28;83295;-87
2021/07/13 00:37:33;;;;;;;;;;;15.10;99.90;15.20;99378.00;;;;344189;28;91032;-87
2021/07/13 00:37:46;;;;;;;;;;;15.00;99.90;15.20;99378.00;;;;345943;28;83510;-87
2021/07/13 00:37:58;;;;;;;;;;;15.00;99.90;15.10;99372.00;;;;345305;28;92395;-87
2021/07/13 00:38:09;;;;;;;;;;;15.00;99.90;15.10;99376.00;;;;348496;27;83254;-87
2021/07/13 00:38:21;;;;;;;;;;;15.00;99.90;15.00;99357.00;;;;346748;28;93087;-87
2021/07/13 00:38:33;;;;;;;;;;;15.00;99.90;15.00;99372.00;;;;345775;28;83387;-87
2021/07/13 00:38:45;;;;;;;;;;;15.00;99.90;15.10;99380.00;;;;345422;28;92128;-87
2021/07/13 00:38:56;;;;;;;;;;;15.00;99.90;15.20;99375.00;;;;346016;28;84334;-87
2021/07/13 00:39:08;;;;;;;;;;;15.00;99.90;15.10;99373.00;;;;346626;28;88976;-86
2021/07/13 00:39:20;;;;;;;;;;;15.00;99.90;15.00;99369.00;;;;347543;27;83226;-85
2021/07/13 00:39:31;;;;;;;;;;;15.00;99.90;15.00;99367.00;;;;342647;28;90930;-86
2021/07/13 00:39:43;;;;;;;;;;;15.00;99.90;15.10;99370.00;;;;344537;28;82450;-86
2021/07/13 00:39:55;;;;;;;;;;;15.00;99.90;15.10;99368.00;;;;345719;28;89090;-87
2021/07/13 00:40:07;;;;;;;;;;;15.00;99.90;15.20;99362.00;;;;344804;28;83312;-87
2021/07/13 00:40:20;;;;;;;;;;;15.00;99.90;15.20;99368.00;;;;344218;28;89296;-87
2021/07/13 00:40:31;;;;;;;;;;;15.00;99.90;15.30;99368.00;;;;346091;28;83292;-87
2021/07/13 00:40:43;;;;;;;;;;;15.10;99.90;15.20;99365.00;;;;345685;28;87762;-86
2021/07/13 00:40:55;;;;;;;;;;;15.00;99.90;15.20;99371.00;;;;345939;28;83382;-87
2021/07/13 00:41:07;;;;;;;;;;;15.10;99.90;15.20;99372.00;;;;347117;28;88846;-87
2021/07/13 00:41:18;;;;;;;;;;;15.00;99.90;15.30;99370.00;;;;347403;28;83363;-86
2021/07/13 00:41:34;;;;;;;;;;;15.00;99.90;15.30;99376.00;;;;344155;28;91914;-86
2021/07/13 00:41:46;;;;;;;;;;;15.00;99.90;15.20;99370.00;;;;347201;28;82407;-86
2021/07/13 00:41:58;;;;;;;;;;;15.00;99.90;15.20;99371.00;;;;344199;28;89927;-87
2021/07/13 00:42:14;;;;;;;;;;;15.00;99.90;15.20;99369.00;;;;347341;27;85959;-87
2021/07/13 00:42:25;;;;;;;;;;;15.00;99.90;15.20;99371.00;;;;346797;28;92563;-87
2021/07/13 00:42:37;;;;;;;;;;;15.00;99.90;15.20;99370.00;;;;346849;28;83338;-86
2021/07/13 00:42:50;;;;;;;;;;;15.00;99.90;15.20;99372.00;;;;345644;28;89632;-87
2021/07/13 00:43:02;;;;;;;;;;;15.00;99.90;15.30;99363.00;;;;347300;28;83484;-86
2021/07/13 00:43:14;;;;;;;;;;;15.10;99.90;15.20;99381.00;;;;345440;28;92142;-86
2021/07/13 00:43:26;;;;;;;;;;;15.10;99.90;15.30;99367.00;;;;347477;28;83396;-86
2021/07/13 00:43:38;;;;;;;;;;;15.10;99.90;15.30;99373.00;;;;344148;28;92185;-87
2021/07/13 00:43:49;;;;;;;;;;;15.10;99.90;15.30;99370.00;;;;344789;28;82466;-87
2021/07/13 00:44:02;;;;;;;;;;;15.00;99.90;15.20;99372.00;;;;346988;28;91836;-86
2021/07/13 00:44:13;;;;;;;;;;;15.10;99.90;15.20;99369.00;;;;344632;28;83167;-86
2021/07/13 00:44:25;;;;;;;;;;;15.10;99.90;15.20;99372.00;;;;345546;28;93310;-87
2021/07/13 00:44:37;;;;;;;;;;;15.10;99.90;15.20;99375.00;;;;347406;28;83356;-87
2021/07/13 00:44:49;;;;;;;;;;;15.10;99.90;15.20;99369.00;;;;345561;28;89510;-86
2021/07/13 00:45:01;;;;;;;;;;;15.10;99.90;15.30;99375.00;;;;345726;28;83349;-86
2021/07/13 00:45:12;;;;;;;;;;;15.10;99.90;15.30;99367.00;;;;346541;28;91244;-86
2021/07/13 00:45:24;;;;;;;;;;;15.10;99.90;15.40;99373.00;;;;347435;28;83963;-86
2021/07/13 00:45:36;;;;;;;;;;;15.10;99.90;15.40;99378.00;;;;344984;28;92073;-87
2021/07/13 00:45:48;;;;;;;;;;;15.10;99.90;15.40;99364.00;;;;346047;28;83463;-86
2021/07/13 00:46:00;;;;;;;;;;;15.10;99.90;15.40;99372.00;;;;344256;28;88796;-86
2021/07/13 00:46:12;;;;;;;;;;;15.10;99.90;15.30;99377.00;;;;345403;28;83553;-87
2021/07/13 00:46:23;;;;;;;;;;;15.10;99.90;15.40;99374.00;;;;345509;28;93673;-87
2021/07/13 00:46:46;;;;;;;;;;;15.10;99.90;15.30;99381.00;;;;344681;28;83358;-87
2021/07/13 00:46:58;;;;;;;;;;;15.10;99.90;15.20;99377.00;;;;342955;28;88018;-86
2021/07/13 00:47:10;;;;;;;;;;;15.10;99.90;15.20;99369.00;;;;347514;28;83340;-86
2021/07/13 00:47:22;;;;;;;;;;;15.00;99.90;15.30;99377.00;;;;346739;28;89356;-87
2021/07/13 00:47:35;;;;;;;;;;;15.00;99.90;15.20;99371.00;;;;344545;28;83515;-86
2021/07/13 00:47:48;;;;;;;;;;;15.10;99.90;15.20;99367.00;;;;345636;28;88827;-86
2021/07/13 00:48:00;;;;;;;;;;;15.00;99.90;15.30;99373.00;;;;346118;28;83345;-87
2021/07/13 00:48:12;;;;;;;;;;;15.00;99.90;15.20;99375.00;;;;347822;27;95600;-86
2021/07/13 00:48:24;;;;;;;;;;;15.00;99.90;15.20;99368.00;;;;347208;28;82586;-86
2021/07/13 00:48:36;;;;;;;;;;;15.00;99.90;15.20;99367.00;;;;347872;27;91900;-86
2021/07/13 00:48:47;;;;;;;;;;;15.00;99.90;15.20;99371.00;;;;347316;28;83572;-86
2021/07/13 00:49:03;;;;;;;;;;;15.00;99.90;15.20;99365.00;;;;345637;28;89291;-86
2021/07/13 00:49:16;;;;;;;;;;;15.00;99.90;15.30;99369.00;;;;347364;28;82583;-86
2021/07/13 00:49:27;;;;;;;;;;;15.10;99.90;15.30;99367.00;;;;344281;28;90174;-86
2021/07/13 00:49:39;;;;;;;;;;;15.00;99.90;15.30;99367.00;;;;347381;28;83148;-87
2021/07/13 00:49:51;;;;;;;;;;;15.00;99.90;15.30;99359.00;;;;345324;28;91755;-86
2021/07/13 00:50:03;;;;;;;;;;;15.00;99.90;15.20;99366.00;;;;347534;28;82345;-87
2021/07/13 00:50:15;;;;;;;;;;;15.00;99.90;15.20;99363.00;;;;344267;28;89302;-86
2021/07/13 00:50:27;;;;;;;;;;;15.00;99.90;15.20;99363.00;;;;347399;28;83288;-86
2021/07/13 00:50:40;;;;;;;;;;;15.00;99.90;15.20;99358.00;;;;347032;28;88549;-86
2021/07/13 00:50:52;;;;;;;;;;;15.00;99.90;15.20;99359.00;;;;348719;27;83403;-86
2021/07/13 00:51:05;;;;;;;;;;;15.00;99.90;15.10;99352.00;;;;346445;28;88856;-87
2021/07/13 00:51:17;;;;;;;;;;;15.00;99.90;15.10;99353.00;;;;344560;28;83441;-87
2021/07/13 00:51:28;;;;;;;;;;;15.00;99.90;15.20;99356.00;;;;345656;28;89857;-87
2021/07/13 00:51:40;;;;;;;;;;;15.00;99.90;15.20;99359.00;;;;346336;28;83535;-87
2021/07/13 00:51:52;;;;;;;;;;;15.00;99.90;15.10;99354.00;;;;345595;28;90814;-86
2021/07/13 00:52:05;;;;;;;;;;;15.00;99.90;15.20;99348.00;;;;346103;28;82495;-87
2021/07/13 00:52:18;;;;;;;;;;;15.00;99.90;15.20;99349.00;;;;348425;27;88140;-87
2021/07/13 00:52:30;;;;;;;;;;;15.00;99.90;15.20;99351.00;;;;347407;28;83402;-86
2021/07/13 00:52:42;;;;;;;;;;;15.00;99.90;15.20;99348.00;;;;343917;28;90234;-87
2021/07/13 00:52:57;;;;;;;;;;;15.00;99.90;15.20;99341.00;;;;347358;28;83376;-87
2021/07/13 00:53:09;;;;;;;;;;;15.00;99.90;15.20;99344.00;;;;345718;28;89031;-87
2021/07/13 00:53:21;;;;;;;;;;;15.00;99.90;15.20;99349.00;;;;347438;28;83384;-86
2021/07/13 00:53:33;;;;;;;;;;;15.00;99.90;15.20;99342.00;;;;346947;28;90381;-87
2021/07/13 00:53:45;;;;;;;;;;;15.00;99.90;15.20;99344.00;;;;344571;28;83485;-87
2021/07/13 00:53:56;;;;;;;;;;;15.00;99.90;15.10;99336.00;;;;345375;28;90801;-86
2021/07/13 00:54:08;;;;;;;;;;;15.00;99.90;15.10;99345.00;;;;347895;27;83538;-86
2021/07/13 00:54:20;;;;;;;;;;;15.00;99.90;15.10;99335.00;;;;345477;28;89687;-87
2021/07/13 00:54:32;;;;;;;;;;;15.00;99.90;15.20;99340.00;;;;345984;28;83291;-87
2021/07/13 00:54:43;;;;;;;;;;;15.00;99.90;15.30;99326.00;;;;344169;28;92505;-86
2021/07/13 00:54:55;;;;;;;;;;;15.00;99.90;15.40;99340.00;;;;347244;28;83446;-86
2021/07/13 00:55:07;;;;;;;;;;;15.00;99.90;15.50;99334.00;;;;346800;28;90111;-86
2021/07/13 00:55:19;;;;;;;;;;;15.00;99.90;15.40;99332.00;;;;347356;28;83447;-87
2021/07/13 00:55:31;;;;;;;;;;;15.00;99.90;15.30;99331.00;;;;345498;28;92972;-86
2021/07/13 00:55:43;;;;;;;;;;;15.00;99.90;15.40;99327.00;;;;347425;28;82267;-86
2021/07/13 00:55:56;;;;;;;;;;;15.00;99.90;15.30;99331.00;;;;345502;28;92348;-87
2021/07/13 00:56:10;;;;;;;;;;;15.00;99.90;15.20;99327.00;;;;347470;28;83364;-87
2021/07/13 00:56:21;;;;;;;;;;;15.00;99.90;15.20;99327.00;;;;348331;27;90583;-87
2021/07/13 00:56:36;;;;;;;;;;;15.00;99.90;15.10;99318.00;;;;346098;28;83086;-87
2021/07/13 00:56:49;;;;;;;;;;;15.00;99.90;15.10;99326.00;;;;346992;28;89778;-87
2021/07/13 00:57:08;;;;;;;;;;;15.00;99.90;15.10;99315.00;;;;347356;28;83504;-86
2021/07/13 00:57:20;;;;;;;;;;;15.00;99.90;15.00;99321.00;;;;344455;28;92578;-86
2021/07/13 00:57:31;;;;;;;;;;;15.00;99.90;15.00;99316.00;;;;345865;28;83416;-87
2021/07/13 00:57:43;;;;;;;;;;;15.00;99.90;15.10;99318.00;;;;342745;28;89436;-86
2021/07/13 00:57:56;;;;;;;;;;;15.00;99.90;15.20;99313.00;;;;343165;28;83507;-86
2021/07/13 00:58:08;;;;;;;;;;;15.00;99.90;15.20;99317.00;;;;344353;28;90873;-86
2021/07/13 00:58:19;;;;;;;;;;;15.00;99.90;15.20;99317.00;;;;347341;28;83517;-86
2021/07/13 00:58:31;;;;;;;;;;;15.00;99.90;15.10;99305.00;;;;344184;28;91300;-87
2021/07/13 00:58:43;;;;;;;;;;;15.00;99.90;15.20;99316.00;;;;339064;28;83272;-86
2021/07/13 00:58:55;;;;;;;;;;;15.00;99.90;15.10;99312.00;;;;337284;28;89082;-87
2021/07/13 00:59:07;;;;;;;;;;;15.00;99.90;15.10;99307.00;;;;339099;28;82412;-87
2021/07/13 00:59:18;;;;;;;;;;;15.00;99.90;15.10;99304.00;;;;338705;28;88969;-86
2021/07/13 00:59:30;;;;;;;;;;;15.00;99.90;15.00;99300.00;;;;338982;28;83361;-86
2021/07/13 00:59:42;;;;;;;;;;;15.00;99.90;15.20;99299.00;;;;337238;28;91000;-87
2021/07/13 00:59:53;;;;;;;;;;;15.00;99.90;15.30;99305.00;;;;338787;28;82425;-86
2021/07/13 01:00:07;;;;;;;;;;;15.00;99.90;15.30;99304.00;;;;339735;28;92151;-86
2021/07/13 01:00:21;;;;;;;;;;;15.00;99.90;15.30;99304.00;;;;338711;28;83528;-87
2021/07/13 01:00:33;;;;;;;;;;;15.00;99.90;15.20;99296.00;;;;340006;28;89016;-87
2021/07/13 01:00:45;;;;;;;;;;;15.00;99.90;15.20;99297.00;;;;337851;28;83329;-87
2021/07/13 01:00:57;;;;;;;;;;;15.00;99.90;15.20;99305.00;;;;337115;28;93284;-87